createdAt,value
2022-09-10T00:01:46.790Z,100877.81
2022-09-10T00:04:17.364Z,100886.38
2022-09-10T00:06:46.706Z,100887.34
2022-09-10T00:09:16.823Z,100875.72
2022-09-10T00:11:47.376Z,100876.38
2022-09-10T00:14:18.810Z,100877.94
2022-09-10T00:16:48.246Z,100876.63
2022-09-10T00:19:18.208Z,100875.53
2022-09-10T00:21:47.298Z,100882.47
2022-09-10T00:24:16.238Z,100878.72
2022-09-10T00:26:46.530Z,100869.44
2022-09-10T00:29:17.476Z,100866.06
2022-09-10T00:31:46.620Z,100873.31
2022-09-10T00:34:16.280Z,100870.09
2022-09-10T00:36:46.708Z,100868.72
2022-09-10T00:39:18.294Z,100872.19
2022-09-10T00:41:50.020Z,100871.22
2022-09-10T00:45:08.093Z,100871.81
2022-09-10T00:47:40.516Z,100873.09
2022-09-10T00:50:18.501Z,100869.47
2022-09-10T00:52:48.300Z,100871.41
2022-09-10T00:55:18.496Z,100866.69
2022-09-10T00:57:53.117Z,100873.91
2022-09-10T01:00:23.414Z,100875.97
2022-09-10T01:02:52.973Z,100881.09
2022-09-10T01:05:22.747Z,100878.59
2022-09-10T01:07:53.017Z,100877.09
2022-09-10T01:10:26.184Z,100878.59
2022-09-10T01:13:25.449Z,100878.72
2022-09-10T01:16:03.963Z,100877.03
2022-09-10T01:18:44.963Z,100889.25
2022-09-10T01:21:24.012Z,100886.59
2022-09-10T01:24:22.227Z,100886.19
2022-09-10T01:27:33.842Z,100889.25
2022-09-10T01:30:09.450Z,100901.16
2022-09-10T01:32:50.313Z,100892.72
2022-09-10T01:35:24.704Z,100894.38
2022-09-10T01:37:57.606Z,100890.75
2022-09-10T01:40:30.031Z,100891.72
2022-09-10T01:43:09.627Z,100896.56
2022-09-10T01:45:52.012Z,100888.25
2022-09-10T01:48:43.859Z,100893.50
2022-09-10T01:51:23.807Z,100893.13
2022-09-10T01:54:04.797Z,100903.06
2022-09-10T01:56:41.865Z,100893.69
2022-09-10T01:59:23.434Z,100903.53
2022-09-10T02:01:58.838Z,100900.50
2022-09-10T02:04:28.482Z,100900.63
2022-09-10T02:06:58.505Z,100888.00
2022-09-10T02:09:28.366Z,100890.91
2022-09-10T02:11:57.501Z,100891.44
2022-09-10T02:14:41.035Z,100891.16
2022-09-10T02:17:21.511Z,100887.16
2022-09-10T02:19:53.813Z,100889.91
2022-09-10T02:22:24.256Z,100885.78
2022-09-10T02:24:53.782Z,100897.69
2022-09-10T02:27:23.562Z,100900.59
2022-09-10T02:29:55.352Z,100895.59
2022-09-10T02:32:24.921Z,100897.00
2022-09-10T02:34:54.282Z,100893.81
2022-09-10T02:37:24.216Z,100901.16
2022-09-10T02:39:53.222Z,100898.53
2022-09-10T02:42:22.600Z,100900.50
2022-09-10T02:44:53.473Z,100904.25
2022-09-10T02:47:23.040Z,100903.97
2022-09-10T02:49:51.978Z,100898.69
2022-09-10T02:52:22.010Z,100899.53
2022-09-10T02:54:51.344Z,100901.03
2022-09-10T02:57:21.085Z,100896.72
2022-09-10T02:59:50.038Z,100907.56
2022-09-10T03:02:20.335Z,100900.34
2022-09-10T03:04:49.338Z,100901.16
2022-09-10T03:07:20.112Z,100900.19
2022-09-10T03:09:49.803Z,100900.34
2022-09-10T03:12:18.747Z,100899.38
2022-09-10T03:14:48.625Z,100897.69
2022-09-10T03:17:19.108Z,100897.56
2022-09-10T03:19:49.488Z,100903.78
2022-09-10T03:22:18.848Z,100895.06
2022-09-10T03:24:47.980Z,100904.78
2022-09-10T03:27:18.016Z,100902.28
2022-09-10T03:29:47.094Z,100903.13
2022-09-10T03:32:16.486Z,100902.97
2022-09-10T03:34:46.783Z,100902.97
2022-09-10T03:37:19.599Z,100900.34
2022-09-10T03:39:49.635Z,100897.88
2022-09-10T03:42:18.894Z,100902.28
2022-09-10T03:44:48.142Z,100906.59
2022-09-10T03:47:17.871Z,100912.53
2022-09-10T03:49:49.811Z,100905.47
2022-09-10T03:52:19.374Z,100912.16
2022-09-10T03:54:50.679Z,100913.38
2022-09-10T03:57:19.808Z,100909.91
2022-09-10T03:59:49.810Z,100908.94
2022-09-10T04:02:19.328Z,100918.50
2022-09-10T04:04:50.308Z,100914.06
2022-09-10T04:07:19.308Z,100917.38
2022-09-10T04:09:48.280Z,100912.09
2022-09-10T04:12:17.788Z,100917.81
2022-09-10T04:14:46.707Z,100918.22
2022-09-10T04:17:18.026Z,100924.59
2022-09-10T04:19:47.413Z,100926.00
2022-09-10T04:22:17.862Z,100925.69
2022-09-10T04:24:46.762Z,100920.00
2022-09-10T04:27:16.896Z,100929.03
2022-09-10T04:29:46.218Z,100921.84
2022-09-10T04:32:15.329Z,100920.06
2022-09-10T04:34:44.397Z,100920.84
2022-09-10T04:37:17.417Z,100919.75
2022-09-10T04:39:50.050Z,100925.16
2022-09-10T04:42:20.269Z,100925.41
2022-09-10T04:44:50.505Z,100922.50
2022-09-10T04:47:20.325Z,100927.75
2022-09-10T04:49:49.425Z,100924.84
2022-09-10T04:52:18.477Z,100924.31
2022-09-10T04:54:48.768Z,100919.59
2022-09-10T04:57:17.909Z,100922.53
2022-09-10T04:59:46.799Z,100917.41
2022-09-10T05:02:16.265Z,100927.53
2022-09-10T05:04:45.325Z,100925.34
2022-09-10T05:07:14.242Z,100925.34
2022-09-10T05:09:43.361Z,100925.63
2022-09-10T05:12:19.270Z,100927.72
2022-09-10T05:14:49.005Z,100924.78
2022-09-10T05:17:18.251Z,100924.63
2022-09-10T05:19:47.262Z,100933.34
2022-09-10T05:22:16.188Z,100924.06
2022-09-10T05:24:45.141Z,100926.84
2022-09-10T05:27:14.087Z,100928.22
2022-09-10T05:29:44.981Z,100927.66
2022-09-10T05:32:14.274Z,100923.78
2022-09-10T05:34:43.710Z,100932.09
2022-09-10T05:37:12.736Z,100932.75
2022-09-10T05:39:43.308Z,100931.38
2022-09-10T05:42:12.646Z,100941.38
2022-09-10T05:44:41.684Z,100939.28
2022-09-10T05:47:11.960Z,100942.88
2022-09-10T05:49:41.256Z,100934.13
2022-09-10T05:52:10.888Z,100932.88
2022-09-10T05:54:39.976Z,100932.91
2022-09-10T05:57:09.022Z,100933.84
2022-09-10T05:59:39.709Z,100934.81
2022-09-10T06:02:11.934Z,100937.88
2022-09-10T06:04:41.212Z,100937.25
2022-09-10T06:07:10.916Z,100928.38
2022-09-10T06:09:40.202Z,100938.09
2022-09-10T06:12:24.748Z,100943.34
2022-09-10T06:14:54.043Z,100956.97
2022-09-10T06:17:25.282Z,100953.34
2022-09-10T06:19:54.317Z,100959.88
2022-09-10T06:22:23.346Z,100954.13
2022-09-10T06:24:55.375Z,100957.91
2022-09-10T06:27:26.493Z,100962.75
2022-09-10T06:29:56.310Z,100964.66
2022-09-10T06:32:27.040Z,100959.91
2022-09-10T06:34:56.838Z,100968.06
2022-09-10T06:37:26.957Z,100965.91
2022-09-10T06:39:57.487Z,100969.88
2022-09-10T06:42:27.830Z,100972.59
2022-09-10T06:45:19.676Z,100964.31
2022-09-10T06:50:56.555Z,100967.28
2022-09-10T06:53:30.247Z,100967.03
2022-09-10T06:56:02.025Z,100973.03
2022-09-10T06:58:36.036Z,100979.81
2022-09-10T07:01:12.644Z,100976.91
2022-09-10T07:03:44.523Z,100977.44
2022-09-10T07:06:15.587Z,100982.72
2022-09-10T07:08:46.253Z,100983.69
2022-09-10T07:11:16.632Z,100988.13
2022-09-10T07:13:51.896Z,100988.00
2022-09-10T07:16:23.047Z,100982.50
2022-09-10T07:18:55.015Z,100982.09
2022-09-10T07:21:28.951Z,100993.28
2022-09-10T07:24:02.338Z,100991.84
2022-09-10T07:26:31.817Z,100991.69
2022-09-10T07:29:02.078Z,100986.88
2022-09-10T07:31:33.847Z,100991.63
2022-09-10T07:34:09.668Z,100986.91
2022-09-10T07:36:38.969Z,100986.22
2022-09-10T07:39:07.954Z,100983.66
2022-09-10T07:41:39.631Z,100987.31
2022-09-10T07:44:12.038Z,100988.28
2022-09-10T07:46:44.955Z,100997.91
2022-09-10T07:49:16.932Z,100996.25
2022-09-10T07:51:59.109Z,100996.94
2022-09-10T07:54:30.366Z,101001.84
2022-09-10T07:57:01.173Z,101001.22
2022-09-10T07:59:30.309Z,101002.63
2022-09-10T08:02:02.435Z,101000.16
2022-09-10T08:04:37.231Z,101004.25
2022-09-10T08:07:09.596Z,100997.66
2022-09-10T08:09:41.054Z,101006.28
2022-09-10T08:12:13.398Z,101005.53
2022-09-10T08:14:42.684Z,101003.41
2022-09-10T08:17:12.443Z,101017.19
2022-09-10T08:19:46.188Z,101019.50
2022-09-10T08:22:16.157Z,101027.22
2022-09-10T08:24:55.663Z,101022.56
2022-09-10T08:27:28.502Z,101025.25
2022-09-10T08:29:58.386Z,101030.66
2022-09-10T08:32:28.852Z,101036.06
2022-09-10T08:35:02.244Z,101039.13
2022-09-10T08:37:33.595Z,101037.38
2022-09-10T08:40:05.795Z,101039.41
2022-09-10T08:42:43.228Z,101042.88
2022-09-10T08:45:17.045Z,101048.94
2022-09-10T08:47:54.663Z,101042.81
2022-09-10T08:50:30.377Z,101052.13
2022-09-10T08:53:17.599Z,101049.25
2022-09-10T08:55:49.054Z,101052.81
2022-09-10T08:58:25.500Z,101056.06
2022-09-10T09:00:59.169Z,101057.25
2022-09-10T09:03:35.837Z,101052.66
2022-09-10T09:06:10.852Z,101053.78
2022-09-10T09:08:48.642Z,101052.31
2022-09-10T09:11:37.327Z,101059.25
2022-09-10T09:14:36.323Z,101055.25
2022-09-10T09:17:44.557Z,101062.09
2022-09-10T09:20:18.313Z,101064.41
2022-09-10T09:22:55.820Z,101060.91
2022-09-10T09:25:39.399Z,101070.53
2022-09-10T09:28:18.494Z,101062.25
2022-09-10T09:30:51.339Z,101069.19
2022-09-10T09:33:25.064Z,101062.25
2022-09-10T09:36:00.023Z,101063.56
2022-09-10T09:38:37.536Z,101056.75
2022-09-10T09:41:17.441Z,101061.59
2022-09-10T09:43:54.363Z,101064.06
2022-09-10T09:46:26.201Z,101063.25
2022-09-10T09:49:02.978Z,101060.06
2022-09-10T09:51:36.654Z,101067.88
2022-09-10T09:54:46.750Z,101059.94
2022-09-10T09:57:03.496Z,101059.44
2022-09-10T09:59:35.750Z,101065.88
2022-09-10T10:02:13.446Z,101063.75
2022-09-10T10:04:55.321Z,101064.88
2022-09-10T10:07:31.423Z,101062.72
2022-09-10T10:10:03.513Z,101064.72
2022-09-10T10:12:33.232Z,101068.53
2022-09-10T10:15:03.583Z,101071.66
2022-09-10T10:17:37.001Z,101068.56
2022-09-10T10:20:09.850Z,101067.66
2022-09-10T10:22:40.454Z,101066.66
2022-09-10T10:25:40.417Z,101062.03
2022-09-10T10:28:21.312Z,101063.88
2022-09-10T10:30:54.514Z,101066.69
2022-09-10T10:33:29.309Z,101067.84
2022-09-10T10:36:10.104Z,101071.97
2022-09-10T10:38:40.848Z,101071.16
2022-09-10T10:41:29.588Z,101069.25
2022-09-10T10:44:14.186Z,101072.28
2022-09-10T10:46:54.252Z,101065.06
2022-09-10T10:49:32.555Z,101071.25
2022-09-10T10:52:09.819Z,101069.03
2022-09-10T10:54:55.619Z,101074.25
2022-09-10T10:57:47.338Z,101070.72
2022-09-10T11:00:20.286Z,101066.50
2022-09-10T11:03:00.184Z,101070.19
2022-09-10T11:05:34.092Z,101069.00
2022-09-10T11:08:11.405Z,101065.44
2022-09-10T11:10:45.786Z,101057.53
2022-09-10T11:13:21.924Z,101053.53
2022-09-10T11:15:59.233Z,101052.84
2022-09-10T11:18:36.075Z,101051.00
2022-09-10T11:21:13.040Z,101049.22
2022-09-10T11:23:47.609Z,101045.41
2022-09-10T11:26:22.557Z,101047.13
2022-09-10T11:29:00.482Z,101045.97
2022-09-10T11:31:36.266Z,101049.47
2022-09-10T11:34:11.301Z,101038.34
2022-09-10T11:36:45.716Z,101035.84
2022-09-10T11:39:20.358Z,101028.72
2022-09-10T11:41:54.628Z,101042.16
2022-09-10T11:44:45.088Z,101030.66
2022-09-10T11:47:20.328Z,101027.88
2022-09-10T11:49:55.644Z,101021.69
2022-09-10T11:52:25.757Z,101025.03
2022-09-10T11:54:55.631Z,101028.69
2022-09-10T11:57:34.840Z,101016.72
2022-09-10T12:00:15.719Z,101016.97
2022-09-10T12:03:22.144Z,101023.69
2022-09-10T12:06:02.824Z,101014.25
2022-09-10T12:08:46.891Z,101016.34
2022-09-10T12:11:27.182Z,101018.34
2022-09-10T12:13:57.374Z,101022.19
2022-09-10T12:16:35.698Z,101023.59
2022-09-10T12:19:09.272Z,101023.47
2022-09-10T12:21:43.034Z,101024.78
2022-09-10T12:24:27.703Z,101024.56
2022-09-10T12:26:59.101Z,101018.91
2022-09-10T12:29:33.080Z,101022.38
2022-09-10T12:32:29.935Z,101014.72
2022-09-10T12:35:47.940Z,101016.34
2022-09-10T12:38:49.911Z,101004.75
2022-09-10T12:41:57.850Z,101011.50
2022-09-10T12:44:45.953Z,101007.41
2022-09-10T12:47:41.702Z,101001.25
2022-09-10T12:50:45.913Z,101002.50
2022-09-10T12:53:47.279Z,101006.41
2022-09-10T12:56:45.558Z,100999.00
2022-09-10T12:59:46.917Z,101001.25
2022-09-10T13:02:26.667Z,101001.66
2022-09-10T13:05:00.543Z,100999.97
2022-09-10T13:07:40.159Z,100996.03
2022-09-10T13:10:22.051Z,100996.69
2022-09-10T13:12:56.542Z,100994.56
2022-09-10T13:15:29.941Z,100996.34
2022-09-10T13:18:26.684Z,100992.38
2022-09-10T13:20:58.564Z,100992.16
2022-09-10T13:23:48.327Z,100999.72
2022-09-10T13:26:49.793Z,101001.47
2022-09-10T13:29:32.624Z,100992.97
2022-09-10T13:32:06.442Z,101000.44
2022-09-10T13:35:06.138Z,100996.34
2022-09-10T13:38:13.127Z,100992.38
2022-09-10T13:41:15.084Z,100986.22
2022-09-10T13:44:01.298Z,100991.72
2022-09-10T13:46:39.511Z,100997.41
2022-09-10T13:49:16.633Z,100990.88
2022-09-10T13:51:52.906Z,100990.16
2022-09-10T13:54:33.552Z,100982.69
2022-09-10T13:57:12.001Z,100992.75
2022-09-10T13:59:43.725Z,100993.78
2022-09-10T14:02:12.745Z,100984.31
2022-09-10T14:04:45.168Z,100987.94
2022-09-10T14:07:17.951Z,100992.47
2022-09-10T14:09:51.976Z,100995.25
2022-09-10T14:12:26.702Z,100995.66
2022-09-10T14:15:01.042Z,100995.19
2022-09-10T14:17:34.177Z,100998.50
2022-09-10T14:20:06.608Z,100996.56
2022-09-10T14:22:39.122Z,100998.97
2022-09-10T14:25:31.218Z,101003.53
2022-09-10T14:28:22.154Z,101014.63
2022-09-10T14:30:53.741Z,101018.38
2022-09-10T14:33:33.103Z,101022.38
2022-09-10T14:36:19.652Z,101025.00
2022-09-10T14:38:57.878Z,101026.41
2022-09-10T14:41:31.926Z,101024.50
2022-09-10T14:44:29.580Z,101028.53
2022-09-10T14:47:00.740Z,101027.72
2022-09-10T14:49:32.378Z,101037.50
2022-09-10T14:52:04.011Z,101041.16
2022-09-10T14:54:34.702Z,101035.38
2022-09-10T14:57:09.859Z,101040.97
2022-09-10T14:59:41.787Z,101040.34
2022-09-10T15:02:16.842Z,101038.81
2022-09-10T15:04:45.988Z,101045.09
2022-09-10T15:07:15.235Z,101051.28
2022-09-10T15:09:44.171Z,101053.63
2022-09-10T15:12:23.780Z,101058.09
2022-09-10T15:14:53.212Z,101057.63
2022-09-10T15:17:22.161Z,101059.75
2022-09-10T15:19:55.852Z,101054.47
2022-09-10T15:22:26.557Z,101052.31
2022-09-10T15:25:09.682Z,101057.13
2022-09-10T15:27:41.730Z,101058.44
2022-09-10T15:30:11.348Z,101046.19
2022-09-10T15:32:40.360Z,101054.63
2022-09-10T15:35:09.904Z,101054.63
2022-09-10T15:37:40.331Z,101056.28
2022-09-10T15:40:10.822Z,101055.13
2022-09-10T15:42:41.925Z,101062.56
2022-09-10T15:45:12.073Z,101061.09
2022-09-10T15:47:41.880Z,101061.59
2022-09-10T15:50:11.962Z,101060.09
2022-09-10T15:52:40.865Z,101070.53
2022-09-10T15:55:10.465Z,101069.34
2022-09-10T15:57:41.285Z,101077.97
2022-09-10T16:00:11.847Z,101083.28
2022-09-10T16:02:41.037Z,101083.44
2022-09-10T16:05:10.521Z,101078.81
2022-09-10T16:07:39.466Z,101078.34
2022-09-10T16:10:09.090Z,101078.00
2022-09-10T16:12:38.285Z,101072.69
2022-09-10T16:15:09.638Z,101074.50
2022-09-10T16:17:38.672Z,101080.63
2022-09-10T16:20:08.249Z,101071.03
2022-09-10T16:22:37.173Z,101077.00
2022-09-10T16:25:08.332Z,101072.34
2022-09-10T16:27:40.383Z,101074.84
2022-09-10T16:30:14.227Z,101074.84
2022-09-10T16:32:43.144Z,101077.31
2022-09-10T16:35:12.079Z,101078.94
2022-09-10T16:37:41.405Z,101081.25
2022-09-10T16:40:11.933Z,101085.56
2022-09-10T16:42:40.903Z,101082.91
2022-09-10T16:45:11.841Z,101092.19
2022-09-10T16:47:40.780Z,101098.66
2022-09-10T16:50:10.576Z,101096.31
2022-09-10T16:52:40.608Z,101099.19
2022-09-10T16:55:10.049Z,101099.50
2022-09-10T16:57:39.068Z,101107.78
2022-09-10T17:00:10.346Z,101110.59
2022-09-10T17:02:40.829Z,101109.78
2022-09-10T17:05:11.163Z,101111.13
2022-09-10T17:07:40.511Z,101111.75
2022-09-10T17:10:10.512Z,101117.75
2022-09-10T17:12:43.702Z,101115.75
2022-09-10T17:15:16.472Z,101118.59
2022-09-10T17:17:47.070Z,101119.25
2022-09-10T17:20:16.393Z,101120.41
2022-09-10T17:22:46.040Z,101116.44
2022-09-10T17:25:16.709Z,101125.69
2022-09-10T17:27:45.645Z,101127.03
2022-09-10T17:30:14.873Z,101126.19
2022-09-10T17:32:44.155Z,101130.66
2022-09-10T17:35:14.755Z,101127.66
2022-09-10T17:37:43.939Z,101127.66
2022-09-10T17:40:13.912Z,101135.78
2022-09-10T17:42:43.004Z,101125.66
2022-09-10T17:45:13.482Z,101130.31
2022-09-10T17:47:42.606Z,101136.91
2022-09-10T17:50:13.276Z,101134.56
2022-09-10T17:52:45.738Z,101145.16
2022-09-10T17:55:15.750Z,101144.00
2022-09-10T17:57:44.750Z,101138.19
2022-09-10T18:00:14.695Z,101143.13
2022-09-10T18:02:43.699Z,101141.44
2022-09-10T18:05:14.034Z,101140.81
2022-09-10T18:07:45.123Z,101139.09
2022-09-10T18:10:16.129Z,101147.53
2022-09-10T18:12:45.053Z,101146.81
2022-09-10T18:15:14.040Z,101146.97
2022-09-10T18:17:42.961Z,101152.91
2022-09-10T18:20:13.582Z,101155.34
2022-09-10T18:22:42.790Z,101161.66
2022-09-10T18:25:12.044Z,101170.06
2022-09-10T18:27:42.521Z,101168.84
2022-09-10T18:30:13.610Z,101175.31
2022-09-10T18:32:42.677Z,101181.88
2022-09-10T18:35:13.099Z,101179.72
2022-09-10T18:37:42.485Z,101184.63
2022-09-10T18:40:12.528Z,101185.09
2022-09-10T18:42:44.817Z,101188.75
2022-09-10T18:45:15.817Z,101190.69
2022-09-10T18:47:45.468Z,101193.13
2022-09-10T18:50:16.629Z,101187.34
2022-09-10T18:52:45.814Z,101203.97
2022-09-10T18:55:16.044Z,101201.47
2022-09-10T18:57:44.954Z,101205.25
2022-09-10T19:00:16.565Z,101210.69
2022-09-10T19:02:47.740Z,101215.97
2022-09-10T19:05:19.042Z,101207.34
2022-09-10T19:07:50.034Z,101216.69
2022-09-10T19:10:19.235Z,101216.69
2022-09-10T19:12:48.817Z,101214.13
2022-09-10T19:15:18.569Z,101215.13
2022-09-10T19:17:47.932Z,101214.06
2022-09-10T19:20:18.682Z,101226.47
2022-09-10T19:22:47.725Z,101224.41
2022-09-10T19:25:16.943Z,101235.28
2022-09-10T19:27:46.054Z,101234.59
2022-09-10T19:30:15.410Z,101239.34
2022-09-10T19:32:44.341Z,101243.13
2022-09-10T19:35:14.413Z,101235.63
2022-09-10T19:37:47.195Z,101236.91
2022-09-10T19:40:16.369Z,101236.38
2022-09-10T19:42:45.618Z,101228.22
2022-09-10T19:45:14.609Z,101235.16
2022-09-10T19:47:44.277Z,101242.25
2022-09-10T19:50:13.349Z,101234.09
2022-09-10T19:52:43.658Z,101235.38
2022-09-10T19:55:13.552Z,101242.09
2022-09-10T19:57:42.955Z,101244.13
2022-09-10T20:00:36.172Z,101251.22
2022-09-10T20:03:04.052Z,101243.88
2022-09-10T20:05:34.013Z,101254.28
2022-09-10T20:08:05.456Z,101258.50
2022-09-10T20:10:34.704Z,101251.28
2022-09-10T20:13:03.653Z,101255.22
2022-09-10T20:15:32.889Z,101261.19
2022-09-10T20:18:01.863Z,101246.63
2022-09-10T20:20:30.866Z,101251.19
2022-09-10T20:23:03.068Z,101250.53
2022-09-10T20:25:32.039Z,101259.41
2022-09-10T20:28:01.635Z,101252.53
2022-09-10T20:30:30.893Z,101255.56
2022-09-10T20:33:01.393Z,101249.31
2022-09-10T20:35:30.654Z,101256.69
2022-09-10T20:38:00.062Z,101253.25
2022-09-10T20:40:30.391Z,101247.53
2022-09-10T20:43:00.083Z,101261.44
2022-09-10T20:45:29.225Z,101260.66
2022-09-10T20:48:00.238Z,101260.22
2022-09-10T20:50:29.405Z,101264.25
2022-09-10T20:52:58.325Z,101271.19
2022-09-10T20:55:28.692Z,101265.63
2022-09-10T20:57:57.865Z,101269.53
2022-09-10T21:00:26.822Z,101274.13
2022-09-10T21:02:57.393Z,101273.69
2022-09-10T21:05:28.166Z,101278.81
2022-09-10T21:07:57.150Z,101275.47
2022-09-10T21:10:27.386Z,101285.78
2022-09-10T21:12:59.031Z,101287.41
2022-09-10T21:15:28.688Z,101296.16
2022-09-10T21:17:58.332Z,101288.38
2022-09-10T21:20:27.573Z,101293.09
2022-09-10T21:22:56.743Z,101296.97
2022-09-10T21:25:26.067Z,101291.38
2022-09-10T21:27:57.146Z,101294.59
2022-09-10T21:30:26.283Z,101300.84
2022-09-10T21:32:55.258Z,101294.44
2022-09-10T21:35:24.379Z,101291.50
2022-09-10T21:37:53.383Z,101300.56
2022-09-10T21:40:25.662Z,101298.31
2022-09-10T21:42:54.863Z,101292.19
2022-09-10T21:45:26.342Z,101302.09
2022-09-10T21:47:55.505Z,101301.94
2022-09-10T21:50:24.626Z,101302.91
2022-09-10T21:52:53.652Z,101307.50
2022-09-10T21:55:23.287Z,101306.22
2022-09-10T21:57:52.309Z,101319.44
2022-09-10T22:00:22.170Z,101309.03
2022-09-10T22:02:52.453Z,101307.22
2022-09-10T22:05:21.721Z,101311.38
2022-09-10T22:07:50.979Z,101307.91
2022-09-10T22:10:21.133Z,101319.72
2022-09-10T22:12:50.211Z,101314.75
2022-09-10T22:15:19.162Z,101325.72
2022-09-10T22:17:48.380Z,101320.31
2022-09-10T22:20:18.830Z,101319.19
2022-09-10T22:22:49.056Z,101313.78
2022-09-10T22:25:18.267Z,101319.47
2022-09-10T22:27:49.275Z,101321.53
2022-09-10T22:30:18.274Z,101317.91
2022-09-10T22:32:47.225Z,101319.16
2022-09-10T22:35:16.214Z,101324.06
2022-09-10T22:37:46.502Z,101328.06
2022-09-10T22:40:15.585Z,101325.84
2022-09-10T22:42:44.591Z,101328.78
2022-09-10T22:45:13.543Z,101325.72
2022-09-10T22:47:42.473Z,101328.09
2022-09-10T22:50:12.393Z,101330.72
2022-09-10T22:52:43.638Z,101331.88
2022-09-10T22:55:15.451Z,101335.47
2022-09-10T22:57:45.113Z,101334.50
2022-09-10T23:00:15.499Z,101334.91
2022-09-10T23:02:46.277Z,101336.44
2022-09-10T23:05:15.348Z,101339.50
2022-09-10T23:07:44.309Z,101337.28
2022-09-10T23:10:14.654Z,101341.72
2022-09-10T23:12:43.624Z,101337.81
2022-09-10T23:15:12.608Z,101344.63
2022-09-10T23:17:41.559Z,101347.38
2022-09-10T23:20:12.253Z,101348.78
2022-09-10T23:22:41.194Z,101347.41
2022-09-10T23:25:10.574Z,101341.97
2022-09-10T23:27:40.858Z,101352.22
2022-09-10T23:30:10.623Z,101356.28
2022-09-10T23:32:39.588Z,101369.03
2022-09-10T23:35:09.606Z,101366.53
2022-09-10T23:37:38.559Z,101370.25
2022-09-10T23:40:11.888Z,101366.81
2022-09-10T23:42:42.222Z,101375.28
2022-09-10T23:45:12.202Z,101369.59
2022-09-10T23:47:41.125Z,101371.69
2022-09-10T23:50:10.540Z,101368.34
2022-09-10T23:52:39.447Z,101370.16
2022-09-10T23:55:09.186Z,101374.88
2022-09-10T23:57:38.877Z,101373.38
